createdAt,value
2022-12-14T00:00:42.656Z,147965.38
2022-12-14T00:03:08.741Z,147954.13
2022-12-14T00:05:34.795Z,147966.63
2022-12-14T00:08:01.343Z,147970.41
2022-12-14T00:10:27.377Z,147966.63
2022-12-14T00:12:53.330Z,147946.59
2022-12-14T00:15:19.167Z,147966.63
2022-12-14T00:17:44.974Z,147941.59
2022-12-14T00:20:10.949Z,147930.31
2022-12-14T00:22:36.651Z,147939.09
2022-12-14T00:25:03.305Z,147931.59
2022-12-14T00:27:29.019Z,147912.78
2022-12-14T00:29:55.330Z,147895.25
2022-12-14T00:32:21.101Z,147884.03
2022-12-14T00:34:46.891Z,147900.31
2022-12-14T00:37:12.640Z,147871.50
2022-12-14T00:39:38.390Z,147864.03
2022-12-14T00:42:04.158Z,147862.78
2022-12-14T00:44:30.617Z,147881.53
2022-12-14T00:46:56.387Z,147881.53
2022-12-14T00:49:22.237Z,147864.03
2022-12-14T00:51:48.066Z,147853.97
2022-12-14T00:54:13.845Z,147840.22
2022-12-14T00:56:39.667Z,147887.78
2022-12-14T00:59:05.456Z,147857.72
2022-12-14T01:01:31.309Z,147840.22
2022-12-14T01:04:16.103Z,147831.47
2022-12-14T01:06:43.604Z,147850.25
2022-12-14T01:09:09.955Z,147877.75
2022-12-14T01:11:35.876Z,147874.00
2022-12-14T01:14:01.719Z,147882.78
2022-12-14T01:16:27.683Z,147882.78
2022-12-14T01:18:53.476Z,147897.81
2022-12-14T01:21:21.524Z,147905.31
2022-12-14T01:23:52.147Z,147924.06
2022-12-14T01:26:18.657Z,147897.81
2022-12-14T01:28:45.621Z,147945.34
2022-12-14T01:31:13.968Z,147922.81
2022-12-14T01:33:39.765Z,147914.09
2022-12-14T01:36:08.725Z,147960.38
2022-12-14T01:38:34.961Z,147922.81
2022-12-14T01:41:01.188Z,147924.06
2022-12-14T01:43:49.636Z,147914.09
2022-12-14T01:46:22.974Z,147920.31
2022-12-14T01:48:52.410Z,147914.09
2022-12-14T01:51:18.356Z,147940.34
2022-12-14T01:53:46.210Z,147956.63
2022-12-14T01:56:12.357Z,147919.09
2022-12-14T01:58:38.189Z,147925.31
2022-12-14T02:01:03.989Z,147915.34
2022-12-14T02:03:36.715Z,147935.34
2022-12-14T02:06:17.064Z,147941.59
2022-12-14T02:08:44.972Z,147917.84
2022-12-14T02:11:10.835Z,147914.09
2022-12-14T02:13:41.752Z,147901.56
2022-12-14T02:16:08.125Z,147921.56
2022-12-14T02:18:34.144Z,147912.78
2022-12-14T02:21:33.497Z,147924.06
2022-12-14T02:24:23.958Z,147910.28
2022-12-14T02:27:03.667Z,147917.84
2022-12-14T02:29:41.671Z,147981.66
2022-12-14T02:32:42.722Z,147939.09
2022-12-14T02:35:25.967Z,147935.34
2022-12-14T02:38:10.940Z,147920.31
2022-12-14T02:40:41.022Z,147930.31
2022-12-14T02:43:29.098Z,147929.06
2022-12-14T02:46:08.892Z,147930.31
2022-12-14T02:49:12.986Z,147941.59
2022-12-14T02:51:48.909Z,147925.31
2022-12-14T02:54:28.934Z,147929.06
2022-12-14T02:57:10.891Z,147924.06
2022-12-14T02:59:36.744Z,147929.06
2022-12-14T03:02:04.008Z,147940.34
2022-12-14T03:04:30.094Z,147946.59
2022-12-14T03:07:01.905Z,147950.38
2022-12-14T03:09:29.825Z,147954.13
2022-12-14T03:12:01.502Z,147972.91
2022-12-14T03:14:35.298Z,148001.66
2022-12-14T03:17:10.320Z,148017.94
2022-12-14T03:19:47.278Z,147975.41
2022-12-14T03:22:53.827Z,148010.47
2022-12-14T03:25:32.778Z,148017.94
2022-12-14T03:28:12.260Z,148012.97
2022-12-14T03:30:59.977Z,148011.72
2022-12-14T03:33:30.852Z,147986.69
2022-12-14T03:36:12.767Z,148006.72
2022-12-14T03:38:44.378Z,148026.75
2022-12-14T03:41:18.033Z,148012.97
2022-12-14T03:44:05.680Z,148000.41
2022-12-14T03:46:54.028Z,147996.69
2022-12-14T03:49:23.819Z,148026.75
2022-12-14T03:51:49.575Z,148021.75
2022-12-14T03:54:26.790Z,147997.94
2022-12-14T03:56:59.046Z,148035.47
2022-12-14T03:59:32.671Z,148023.00
2022-12-14T04:02:09.410Z,148021.75
2022-12-14T04:05:02.933Z,148050.50
2022-12-14T04:08:02.154Z,148055.50
2022-12-14T04:11:00.211Z,148040.53
2022-12-14T04:13:51.866Z,148054.25
2022-12-14T04:16:40.457Z,148046.78
2022-12-14T04:19:13.962Z,148046.78
2022-12-14T04:21:45.407Z,148063.06
2022-12-14T04:24:49.264Z,148076.84
2022-12-14T04:27:25.847Z,148066.81
2022-12-14T04:29:56.171Z,148056.81
2022-12-14T04:32:34.931Z,148058.06
2022-12-14T04:35:19.607Z,148059.31
2022-12-14T04:37:51.616Z,148079.34
2022-12-14T04:40:32.275Z,148058.06
2022-12-14T04:43:07.125Z,148063.06
2022-12-14T04:45:38.928Z,148055.50
2022-12-14T04:48:26.394Z,148015.47
2022-12-14T04:51:00.325Z,148053.00
2022-12-14T04:53:30.306Z,148020.50
2022-12-14T04:55:59.250Z,148040.53
2022-12-14T04:58:27.505Z,148031.75
2022-12-14T05:01:27.292Z,148044.28
2022-12-14T05:04:15.800Z,148017.94
2022-12-14T05:06:44.670Z,148058.06
2022-12-14T05:09:24.454Z,148030.50
2022-12-14T05:12:04.191Z,148049.25
2022-12-14T05:14:45.466Z,148061.81
2022-12-14T05:17:11.941Z,148059.31
2022-12-14T05:19:48.649Z,148071.81
2022-12-14T05:22:15.721Z,148069.31
2022-12-14T05:24:41.478Z,148081.84
2022-12-14T05:27:07.288Z,148076.84
2022-12-14T05:29:33.486Z,148076.84
2022-12-14T05:32:00.363Z,148068.06
2022-12-14T05:34:26.160Z,148079.34
2022-12-14T05:36:51.995Z,148043.03
2022-12-14T05:39:17.915Z,148053.00
2022-12-14T05:41:44.199Z,148066.81
2022-12-14T05:44:10.311Z,148071.81
2022-12-14T05:46:36.690Z,148060.56
2022-12-14T05:49:02.824Z,148063.06
2022-12-14T05:51:28.600Z,148076.84
2022-12-14T05:53:54.374Z,148071.81
2022-12-14T05:56:20.364Z,148101.88
2022-12-14T05:58:49.644Z,148055.50
2022-12-14T06:01:19.364Z,148044.28
2022-12-14T06:03:45.916Z,148061.81
2022-12-14T06:06:12.877Z,148059.31
2022-12-14T06:08:42.783Z,148046.78
2022-12-14T06:11:14.258Z,148064.31
2022-12-14T06:13:40.807Z,148048.03
2022-12-14T06:16:18.744Z,148085.59
2022-12-14T06:18:47.494Z,148064.31
2022-12-14T06:21:15.255Z,148035.47
2022-12-14T06:23:41.422Z,148058.06
2022-12-14T06:26:08.773Z,148045.53
2022-12-14T06:28:35.467Z,148071.81
2022-12-14T06:31:02.188Z,148053.00
2022-12-14T06:33:28.869Z,148059.31
2022-12-14T06:35:54.964Z,148045.53
2022-12-14T06:38:21.156Z,148058.06
2022-12-14T06:40:47.105Z,148060.56
2022-12-14T06:43:13.300Z,148012.97
2022-12-14T06:45:39.155Z,148060.56
2022-12-14T06:48:05.193Z,148054.25
2022-12-14T06:50:31.103Z,148098.13
2022-12-14T06:52:57.071Z,148089.31
2022-12-14T06:55:24.563Z,148021.75
2022-12-14T06:57:51.079Z,148049.25
2022-12-14T07:00:21.214Z,148070.56
2022-12-14T07:02:47.696Z,148034.22
2022-12-14T07:05:14.436Z,148031.75
2022-12-14T07:07:41.188Z,148024.25
2022-12-14T07:10:09.099Z,148032.97
2022-12-14T07:12:35.604Z,148037.97
2022-12-14T07:15:01.872Z,148048.03
2022-12-14T07:17:27.694Z,148079.34
2022-12-14T07:19:53.548Z,148056.81
2022-12-14T07:22:19.700Z,148074.34
2022-12-14T07:24:45.535Z,148074.34
2022-12-14T07:27:11.631Z,148055.50
2022-12-14T07:29:37.508Z,148079.34
2022-12-14T07:32:03.709Z,148056.81
2022-12-14T07:34:29.595Z,148083.09
2022-12-14T07:36:57.065Z,148060.56
2022-12-14T07:39:22.963Z,148046.78
2022-12-14T07:41:49.855Z,148030.50
2022-12-14T07:44:16.464Z,148012.97
2022-12-14T07:46:42.662Z,148071.81
2022-12-14T07:49:08.713Z,148060.56
2022-12-14T07:51:41.244Z,148069.31
2022-12-14T07:54:07.725Z,148050.50
2022-12-14T07:56:37.648Z,148037.97
2022-12-14T07:59:06.072Z,148064.31
2022-12-14T08:01:34.643Z,148044.28
2022-12-14T08:04:06.195Z,148041.78
2022-12-14T08:06:32.410Z,148069.31
2022-12-14T08:08:58.789Z,148044.28
2022-12-14T08:11:25.128Z,148010.47
2022-12-14T08:13:54.760Z,148055.50
2022-12-14T08:16:20.986Z,148004.22
2022-12-14T08:18:46.876Z,148000.41
2022-12-14T08:21:14.714Z,148002.97
2022-12-14T08:23:40.875Z,148036.72
2022-12-14T08:26:07.486Z,147980.41
2022-12-14T08:28:35.315Z,147956.63
2022-12-14T08:31:07.114Z,147984.13
2022-12-14T08:33:34.413Z,148026.75
2022-12-14T08:36:06.485Z,148053.00
2022-12-14T08:38:32.279Z,148031.75
2022-12-14T08:41:02.907Z,148025.50
2022-12-14T08:43:29.095Z,148060.56
2022-12-14T08:45:55.149Z,148066.81
2022-12-14T08:48:20.963Z,148080.59
2022-12-14T08:50:46.946Z,148119.41
2022-12-14T08:53:16.053Z,148121.91
2022-12-14T08:55:42.254Z,148070.56
2022-12-14T08:58:08.048Z,148081.84
2022-12-14T09:00:34.028Z,148073.03
2022-12-14T09:03:00.018Z,148088.09
2022-12-14T09:05:26.057Z,148144.44
2022-12-14T09:07:52.016Z,148088.09
2022-12-14T09:10:17.845Z,148063.06
2022-12-14T09:12:43.750Z,148108.13
2022-12-14T09:15:11.131Z,148135.69
2022-12-14T09:17:37.014Z,148138.19
2022-12-14T09:20:05.102Z,148143.19
2022-12-14T09:22:31.049Z,148118.16
2022-12-14T09:24:56.946Z,148078.09
2022-12-14T09:27:23.039Z,148110.66
2022-12-14T09:29:49.404Z,148115.66
2022-12-14T09:32:15.638Z,148088.09
2022-12-14T09:34:41.823Z,148091.88
2022-12-14T09:37:07.693Z,148031.75
2022-12-14T09:39:35.143Z,148073.03
2022-12-14T09:42:39.296Z,148051.75
2022-12-14T09:45:21.245Z,148060.56
2022-12-14T09:48:12.762Z,148064.31
2022-12-14T09:50:39.645Z,148025.50
2022-12-14T09:53:07.657Z,148084.34
2022-12-14T09:55:46.884Z,148076.84
2022-12-14T09:58:19.457Z,148098.13
2022-12-14T10:01:06.144Z,148104.38
2022-12-14T10:03:59.451Z,148130.69
2022-12-14T10:06:37.391Z,148116.91
2022-12-14T10:09:35.720Z,148108.13
2022-12-14T10:12:20.513Z,148085.59
2022-12-14T10:15:23.748Z,148110.66
2022-12-14T10:18:17.579Z,148098.13
2022-12-14T10:21:13.338Z,148089.31
2022-12-14T10:23:52.086Z,148010.47
2022-12-14T10:26:20.918Z,148041.78
2022-12-14T10:29:05.797Z,148066.81
2022-12-14T10:31:39.903Z,148084.34
2022-12-14T10:34:29.233Z,148090.56
2022-12-14T10:37:11.749Z,148089.31
2022-12-14T10:40:07.633Z,148125.66
2022-12-14T10:42:54.984Z,148130.69
2022-12-14T10:45:46.311Z,148134.44
2022-12-14T10:48:24.532Z,148125.66
2022-12-14T10:50:59.386Z,148135.69
2022-12-14T10:53:37.121Z,148128.19
2022-12-14T10:56:12.753Z,148091.88
2022-12-14T10:58:38.676Z,148098.13
2022-12-14T11:01:04.814Z,148130.69
2022-12-14T11:03:31.444Z,148136.94
2022-12-14T11:06:06.973Z,148190.81
2022-12-14T11:08:48.799Z,148194.56
2022-12-14T11:11:19.522Z,148189.56
2022-12-14T11:13:53.878Z,148228.41
2022-12-14T11:16:37.805Z,148253.47
2022-12-14T11:19:13.999Z,148193.31
2022-12-14T11:21:40.003Z,148223.41
2022-12-14T11:24:06.803Z,148227.13
2022-12-14T11:26:39.364Z,148247.19
2022-12-14T11:29:29.854Z,148271.03
2022-12-14T11:31:55.918Z,148243.44
2022-12-14T11:34:42.572Z,148240.94
2022-12-14T11:37:21.126Z,148237.19
2022-12-14T11:39:51.471Z,148239.69
2022-12-14T11:42:19.712Z,148264.72
2022-12-14T11:44:48.126Z,148244.69
2022-12-14T11:47:25.787Z,148215.84
2022-12-14T11:49:57.089Z,148138.19
2022-12-14T11:52:40.836Z,148169.53
2022-12-14T11:55:13.936Z,148173.28
2022-12-14T11:57:51.125Z,148155.72
2022-12-14T12:00:19.619Z,148198.31
2022-12-14T12:02:59.079Z,148183.31
2022-12-14T12:05:26.350Z,148194.56
2022-12-14T12:07:56.059Z,148234.69
2022-12-14T12:10:38.704Z,148227.13
2022-12-14T12:13:09.417Z,148243.44
2022-12-14T12:15:42.462Z,148273.53
2022-12-14T12:18:31.870Z,148286.03
2022-12-14T12:21:07.812Z,148301.06
2022-12-14T12:23:42.814Z,148292.31
2022-12-14T12:26:24.792Z,148286.03
2022-12-14T12:28:58.672Z,148291.06
2022-12-14T12:31:32.668Z,148245.94
2022-12-14T12:34:09.668Z,148245.94
2022-12-14T12:36:37.154Z,148230.91
2022-12-14T12:39:14.864Z,148245.94
2022-12-14T12:42:26.025Z,148294.81
2022-12-14T12:45:15.070Z,148294.81
2022-12-14T12:47:47.526Z,148294.81
2022-12-14T12:50:17.150Z,148232.13
2022-12-14T12:53:00.925Z,148268.47
2022-12-14T12:55:33.731Z,148258.47
2022-12-14T12:58:02.543Z,148249.69
2022-12-14T13:00:29.928Z,148273.53
2022-12-14T13:03:12.834Z,148316.13
2022-12-14T13:05:49.061Z,148288.56
2022-12-14T13:08:25.251Z,148324.91
2022-12-14T13:13:46.326Z,148372.53
2022-12-14T13:16:38.292Z,148372.53
2022-12-14T13:19:52.716Z,148327.41
2022-12-14T13:22:32.803Z,148319.88
2022-12-14T13:25:10.912Z,148343.72
2022-12-14T13:28:10.965Z,148332.41
2022-12-14T13:31:30.620Z,148346.22
2022-12-14T13:34:03.320Z,148354.97
2022-12-14T13:37:04.058Z,148380.06
2022-12-14T13:39:56.912Z,148368.78
2022-12-14T13:42:44.243Z,148343.72
2022-12-14T13:45:19.876Z,148347.47
2022-12-14T13:47:50.734Z,148377.56
2022-12-14T13:50:39.162Z,148378.81
2022-12-14T13:53:11.370Z,148386.31
2022-12-14T13:55:45.975Z,148388.81
2022-12-14T13:58:38.091Z,148405.13
2022-12-14T14:01:25.232Z,148386.31
2022-12-14T14:03:53.715Z,148395.13
2022-12-14T14:06:22.626Z,148410.13
2022-12-14T14:08:51.265Z,148408.88
2022-12-14T14:11:39.151Z,148411.38
2022-12-14T14:14:34.768Z,148403.88
2022-12-14T14:17:11.251Z,148425.19
2022-12-14T14:19:40.343Z,148400.13
2022-12-14T14:22:25.687Z,148378.81
2022-12-14T14:24:56.908Z,148353.72
2022-12-14T14:27:31.857Z,148353.72
2022-12-14T14:29:57.727Z,148343.72
2022-12-14T14:32:41.710Z,148337.41
2022-12-14T14:35:37.631Z,148317.38
2022-12-14T14:38:21.733Z,148284.78
2022-12-14T14:41:15.307Z,148301.06
2022-12-14T14:43:46.172Z,148250.94
2022-12-14T14:46:22.415Z,148298.56
2022-12-14T14:48:54.265Z,148284.78
2022-12-14T14:51:24.419Z,148276.03
2022-12-14T14:55:06.517Z,148220.91
2022-12-14T14:57:54.040Z,148190.81
2022-12-14T15:00:20.080Z,148143.19
2022-12-14T15:02:46.189Z,148153.22
2022-12-14T15:05:42.730Z,148130.69
2022-12-14T15:08:19.837Z,148114.41
2022-12-14T15:10:47.116Z,148120.66
2022-12-14T15:13:22.247Z,148124.41
2022-12-14T15:15:51.077Z,148123.16
2022-12-14T15:18:32.049Z,148138.19
2022-12-14T15:21:11.486Z,148151.97
2022-12-14T15:23:41.614Z,148110.66
2022-12-14T15:26:24.555Z,148068.06
2022-12-14T15:28:55.866Z,148014.22
2022-12-14T15:31:34.301Z,148034.22
2022-12-14T15:34:02.284Z,148079.34
2022-12-14T15:36:32.901Z,148079.34
2022-12-14T15:38:58.950Z,148129.44
2022-12-14T15:41:31.595Z,148172.03
2022-12-14T15:44:00.270Z,148061.81
2022-12-14T15:46:33.247Z,148104.38
2022-12-14T15:57:15.758Z,148091.88
2022-12-14T15:59:44.216Z,148084.34
2022-12-14T16:02:17.769Z,148080.59
2022-12-14T16:04:45.368Z,148080.59
2022-12-14T16:07:25.006Z,148088.09
2022-12-14T16:09:59.708Z,148101.88
2022-12-14T16:12:47.395Z,148084.34
2022-12-14T16:15:27.628Z,148116.91
2022-12-14T16:18:02.118Z,148134.44
2022-12-14T16:20:31.159Z,148109.38
2022-12-14T16:23:24.346Z,148076.84
2022-12-14T16:25:55.276Z,148078.09
2022-12-14T16:28:33.836Z,148090.56
2022-12-14T16:31:16.964Z,148100.63
2022-12-14T16:33:43.101Z,148098.13
2022-12-14T16:36:23.687Z,148105.63
2022-12-14T16:38:57.204Z,148128.19
2022-12-14T16:41:43.544Z,148128.19
2022-12-14T16:44:20.205Z,148148.22
2022-12-14T16:47:04.069Z,148133.19
2022-12-14T16:49:35.575Z,148113.16
2022-12-14T16:52:13.750Z,148113.16
2022-12-14T16:54:39.884Z,148120.66
2022-12-14T16:57:16.410Z,148125.66
2022-12-14T16:59:44.822Z,148125.66
2022-12-14T17:02:27.860Z,148079.34
2022-12-14T17:04:55.317Z,148099.38
2022-12-14T17:07:25.528Z,148120.66
2022-12-14T17:09:51.565Z,148123.16
2022-12-14T17:12:17.886Z,148110.66
2022-12-14T17:14:49.693Z,148109.38
2022-12-14T17:17:26.599Z,148121.91
2022-12-14T17:19:52.561Z,148136.94
2022-12-14T17:22:24.412Z,148145.72
2022-12-14T17:24:50.592Z,148104.38
2022-12-14T17:27:17.914Z,148120.66
2022-12-14T17:29:44.207Z,148140.69
2022-12-14T17:32:12.977Z,148111.91
2022-12-14T17:34:39.200Z,148143.19
2022-12-14T17:37:17.931Z,148129.44
2022-12-14T17:39:44.138Z,148140.69
2022-12-14T17:42:15.343Z,148159.47
2022-12-14T17:44:43.618Z,148148.22
2022-12-14T17:47:13.685Z,148145.72
2022-12-14T17:49:41.528Z,148135.69
2022-12-14T17:52:18.557Z,148136.94
2022-12-14T17:54:44.944Z,148159.47
2022-12-14T17:57:22.074Z,148165.78
2022-12-14T17:59:48.827Z,148158.22
2022-12-14T18:02:32.372Z,148179.53
2022-12-14T18:04:58.778Z,148170.78
2022-12-14T18:07:24.961Z,148179.53
2022-12-14T18:09:52.977Z,148156.97
2022-12-14T18:12:24.129Z,148167.03
2022-12-14T18:14:51.333Z,148163.28
2022-12-14T18:17:19.008Z,148184.56
2022-12-14T18:19:45.011Z,148173.28
2022-12-14T18:22:14.054Z,148159.47
2022-12-14T18:24:39.901Z,148139.44
2022-12-14T18:27:06.811Z,148160.72
2022-12-14T18:29:32.731Z,148144.44
2022-12-14T18:31:59.414Z,148140.69
2022-12-14T18:34:25.523Z,148146.97
2022-12-14T18:36:51.817Z,148167.03
2022-12-14T18:39:17.640Z,148173.28
2022-12-14T18:41:44.120Z,148159.47
2022-12-14T18:44:10.352Z,148149.47
2022-12-14T18:46:38.523Z,148146.97
2022-12-14T18:49:04.418Z,148204.59
2022-12-14T18:51:30.715Z,148121.91
2022-12-14T18:53:59.099Z,148110.66
2022-12-14T18:56:27.704Z,148064.31
2022-12-14T18:58:53.679Z,148014.22
2022-12-14T19:01:22.254Z,148034.22
2022-12-14T19:03:48.844Z,148085.59
2022-12-14T19:06:43.579Z,148104.38
2022-12-14T19:09:04.103Z,148088.09
2022-12-14T19:11:33.798Z,147982.91
2022-12-14T19:14:00.699Z,148032.97
2022-12-14T19:16:27.331Z,148014.22
2022-12-14T19:18:53.610Z,148019.19
2022-12-14T19:21:19.513Z,147915.34
2022-12-14T19:23:45.749Z,148006.72
2022-12-14T19:26:11.639Z,147964.13
2022-12-14T19:28:37.587Z,147931.59
2022-12-14T19:31:03.579Z,147914.09
2022-12-14T19:33:30.080Z,147959.13
2022-12-14T19:35:56.530Z,147917.84
2022-12-14T19:38:22.564Z,147922.81
2022-12-14T19:41:05.097Z,147942.84
2022-12-14T19:43:31.822Z,147919.09
2022-12-14T19:45:58.161Z,147932.84
2022-12-14T19:48:24.232Z,147956.63
2022-12-14T19:50:50.348Z,147944.09
2022-12-14T19:53:19.977Z,147956.63
2022-12-14T19:55:51.984Z,147965.38
2022-12-14T19:58:21.049Z,147997.94
2022-12-14T20:00:47.512Z,147967.91
2022-12-14T20:03:13.468Z,147932.84
2022-12-14T20:05:39.446Z,147917.84
2022-12-14T20:08:05.442Z,147919.09
2022-12-14T20:10:31.361Z,147947.84
2022-12-14T20:12:57.324Z,147981.66
2022-12-14T20:15:23.321Z,147981.66
2022-12-14T20:17:49.320Z,147980.41
2022-12-14T20:20:15.251Z,147997.94
2022-12-14T20:22:41.052Z,147980.41
2022-12-14T20:25:07.345Z,148014.22
2022-12-14T20:27:38.856Z,147951.63
2022-12-14T20:30:07.431Z,147862.78
2022-12-14T20:32:33.305Z,147919.09
2022-12-14T20:34:59.210Z,147896.56
2022-12-14T20:37:25.752Z,147858.97
2022-12-14T20:39:51.924Z,147904.06
2022-12-14T20:42:17.710Z,147914.09
2022-12-14T20:44:43.632Z,147897.81
2022-12-14T20:47:15.135Z,147942.84
2022-12-14T20:49:41.169Z,147994.19
2022-12-14T20:52:07.042Z,147927.81
2022-12-14T20:54:32.935Z,147896.56
2022-12-14T20:56:58.841Z,147841.47
2022-12-14T20:59:25.065Z,147864.03
2022-12-14T21:01:55.847Z,147897.81
2022-12-14T21:04:22.403Z,147856.47
2022-12-14T21:06:48.260Z,147846.50
2022-12-14T21:09:14.501Z,147874.00
2022-12-14T21:12:01.116Z,147821.44
2022-12-14T21:14:35.837Z,147802.69
2022-12-14T21:17:03.202Z,147763.91
2022-12-14T21:19:30.265Z,147830.22
2022-12-14T21:21:56.414Z,147796.44
2022-12-14T21:25:01.197Z,147762.66
2022-12-14T21:27:24.815Z,147758.91
2022-12-14T21:29:51.570Z,147690.09
2022-12-14T21:32:19.153Z,147687.63
2022-12-14T21:34:45.529Z,147716.34
2022-12-14T21:37:11.399Z,147691.34
2022-12-14T21:39:37.497Z,147652.59
2022-12-14T21:42:09.816Z,147680.09
2022-12-14T21:44:39.628Z,147632.59
2022-12-14T21:47:08.650Z,147650.09
2022-12-14T21:49:39.624Z,147637.59
2022-12-14T21:52:07.664Z,147681.34
2022-12-14T21:54:34.134Z,147685.13
2022-12-14T21:57:18.659Z,147685.13
2022-12-14T21:59:44.810Z,147691.34
2022-12-14T22:02:14.819Z,147711.38
2022-12-14T22:04:45.507Z,147721.38
2022-12-14T22:07:17.540Z,147756.41
2022-12-14T22:09:44.224Z,147715.09
2022-12-14T22:12:17.106Z,147730.13
2022-12-14T22:14:42.928Z,147750.13
2022-12-14T22:17:10.913Z,147757.66
2022-12-14T22:19:36.761Z,147753.91
2022-12-14T22:22:02.716Z,147783.91
2022-12-14T22:24:28.677Z,147781.41
2022-12-14T22:26:55.985Z,147798.94
2022-12-14T22:29:22.138Z,147806.41
2022-12-14T22:31:49.527Z,147786.41
2022-12-14T22:34:19.959Z,147807.72
2022-12-14T22:36:48.675Z,147818.94
2022-12-14T22:39:15.086Z,147810.22
2022-12-14T22:41:41.006Z,147815.19
2022-12-14T22:44:07.076Z,147807.72
2022-12-14T22:46:33.552Z,147798.94
2022-12-14T22:48:59.802Z,147800.19
2022-12-14T22:51:25.713Z,147753.91
2022-12-14T22:53:51.995Z,147760.16
2022-12-14T22:56:20.590Z,147770.13
2022-12-14T22:58:52.746Z,147757.66
2022-12-14T23:01:19.510Z,147781.41
2022-12-14T23:03:46.336Z,147660.09
2022-12-14T23:06:18.379Z,147730.13
2022-12-14T23:09:05.515Z,147766.41
2022-12-14T23:11:50.345Z,147757.66
2022-12-14T23:14:35.319Z,147775.19
2022-12-14T23:17:19.771Z,147702.63
2022-12-14T23:20:05.375Z,147727.63
2022-12-14T23:22:50.213Z,147723.88
2022-12-14T23:25:35.202Z,147653.84
2022-12-14T23:28:19.914Z,147708.88
2022-12-14T23:31:04.662Z,147725.13
2022-12-14T23:33:49.470Z,147660.09
2022-12-14T23:36:33.963Z,147686.38
2022-12-14T23:39:18.438Z,147703.88
2022-12-14T23:42:03.883Z,147683.88
2022-12-14T23:44:48.422Z,147703.88
2022-12-14T23:47:32.829Z,147733.88
2022-12-14T23:50:17.454Z,147701.38
2022-12-14T23:53:01.703Z,147700.13
2022-12-14T23:55:46.224Z,147683.88
2022-12-14T23:58:30.643Z,147683.88
